Station: Hamilton Island  

  Atmospheric Gas Attenuation - ITU Rec 676-11   ----------------- dB/100km -----------------
Date Time Temp RH % AH g/m3 Dew Point Wind Direction Speed kph Gust kph Barometer mB Rainfall Since 9am 24GHz 47GHz 76GHz 122GHz 134GHz 241GHz
08/05 12:30 21.9 64 12.35 14.8 44 54 1017 0 27.1 29.6 50.6 133.2 136.5 472.6
08/05 12:20 22 65 12.61 15.1 46 50 1017 0 27.6 30.0 51.6 135.9 139.8 484.2
08/05 12:10 22.2 64 12.56 15.1 48 52 1017.1 0 27.5 29.9 51.2 135.0 138.8 480.7
08/05 12:00 22.2 68 13.35 16 48 57 1017.3 0 29.2 31.2 54.5 143.8 149.5 518.3
08/05 11:50 21.8 64 12.28 14.7 50 56 1017.3 0 27.0 29.6 50.4 132.7 135.7 470.0
08/05 11:40 22.3 67 13.23 15.9 43 48 1017.4 0 28.9 31.0 54.0 142.3 147.7 511.9
08/05 11:30 21.9 64 12.35 14.8 48 57 1017.6 0 27.1 29.7 50.6 133.3 136.5 472.8
08/05 11:20 22.1 66 12.88 15.5 50 56 1017.8 0 28.2 30.5 52.7 138.8 143.4 496.7
08/05 11:10 22 67 13 15.6 48 54 1017.8 0 28.5 30.7 53.2 140.3 145.2 503.0
08/05 11:00 22.2 64 12.56 15.1 50 59 1017.8 0 27.5 29.9 51.3 135.1 138.8 480.9
08/05 10:50 21.7 67 12.78 15.3 48 56 1017.9 0 28.0 30.5 52.5 138.4 142.7 494.5
08/05 10:40 22.1 65 12.69 15.2 48 56 1018 0 27.8 30.2 51.9 136.7 140.8 487.7
08/05 10:30 21.9 65 12.54 15 50 59 1018 0 27.5 30.0 51.4 135.4 139.1 481.9
08/05 10:20 21.9 65 12.54 15 54 61 1018 0 27.5 30.0 51.4 135.4 139.1 481.9
08/05 10:10 22 64 12.42 14.9 52 57 1018.1 0 27.2 29.8 50.8 134.0 137.3 475.7
08/05 10:00 21.8 63 12.09 14.4 52 61 1018 0 26.6 29.3 49.6 130.7 133.3 461.4
08/05 09:50 21.9 64 12.35 14.8 52 57 1018 0 27.1 29.7 50.6 133.4 136.6 473.0
08/05 09:40 21.8 65 12.47 14.9 52 57 1018.1 0 27.4 29.9 51.2 134.9 138.4 479.2
08/05 09:30 21.8 63 12.09 14.4 56 63 1017.9 0 26.6 29.3 49.6 130.7 133.3 461.4
08/05 09:20 21.9 66 12.73 15.3 46 56 1017.9 0 27.9 30.3 52.2 137.5 141.7 490.8
08/05 09:10 21.9 64 12.35 14.8 41 48 1018 0 27.1 29.7 50.6 133.4 136.6 473.0
08/05 09:00 21.8 65 12.47 14.9 46 63 1017.9 0 27.4 29.9 51.2 134.8 138.4 479.2
08/05 08:50 21.9 63 12.16 14.5 50 54 1017.8 0 26.7 29.4 49.8 131.3 134.0 464.0
08/05 08:40 22.2 61 11.98 14.3 46 50 1017.7 0 26.3 29.0 48.9 128.8 131.1 453.9
08/05 08:30 22.2 62 12.17 14.6 54 61 1017.4 0 26.7 29.3 49.7 130.8 133.6 462.5
08/05 08:20 22 65 12.61 15.1 46 56 1017.4 0 27.6 30.0 51.6 136.0 139.8 484.4
08/05 08:10 21.9 62 11.96 14.3 56 59 1017.2 0 26.3 29.0 49.0 129.0 131.3 454.5
08/05 08:00 21.9 66 12.73 15.3 46 57 1017.2 0 27.9 30.3 52.1 137.4 141.6 490.6
08/05 07:50 21.8 63 12.09 14.4 44 54 1017.1 0 26.6 29.2 49.6 130.6 133.2 461.1
08/05 07:40 21.9 63 12.16 14.5 43 50 1017 0 26.7 29.3 49.8 131.2 133.9 463.7
08/05 07:30 21.9 62 11.96 14.3 46 56 1016.8 0 26.3 29.0 49.0 129.0 131.2 454.3
08/05 07:20 22 63 12.23 14.6 46 54 1016.7 0 26.8 29.4 50.0 131.7 134.7 466.3
08/05 07:10 22.2 62 12.17 14.6 48 54 1016.6 0 26.7 29.2 49.6 130.7 133.5 462.3
08/05 07:00 22.1 62 12.1 14.5 46 57 1016.6 0 26.6 29.1 49.4 130.1 132.7 459.6
08/05 06:50 22.1 63 12.3 14.7 41 46 1016.5 0 27.0 29.5 50.2 132.3 135.4 468.9
08/05 06:40 22.1 61 11.91 14.2 50 57 1016.3 0 26.2 28.8 48.6 128.1 130.2 450.7
08/05 06:30 22 61 11.84 14.1 44 52 1016.2 0 26.0 28.7 48.4 127.5 129.4 448.0
08/05 06:20 22.1 60 11.71 14 43 48 1016 0 25.7 28.5 47.8 125.9 127.5 441.4
08/05 06:10 22.1 63 12.3 14.7 46 52 1015.9 0 27.0 29.4 50.2 132.2 135.3 468.7
08/05 06:00 22.1 63 12.3 14.7 46 54 1015.8 0 27.0 29.4 50.2 132.2 135.3 468.6
08/05 05:50 22.2 63 12.37 14.8 46 50 1015.6 0 27.1 29.5 50.4 132.8 136.1 471.2
08/05 05:40 22.2 62 12.17 14.6 44 54 1015.5 0 26.7 29.2 49.6 130.6 133.4 461.9
08/05 05:30 22.3 64 12.64 15.2 46 56 1015.5 0 27.7 29.9 51.4 135.5 139.5 483.2
08/05 05:20 22.4 63 12.51 15 43 50 1015.3 0 27.4 29.7 50.8 133.9 137.5 476.4
08/05 05:10 22.4 64 12.71 15.3 41 44 1015.2 0 27.8 30.0 51.6 136.1 140.2 485.8
08/05 05:00 22.4 65 12.91 15.5 43 52 1015 0 28.3 30.3 52.4 138.3 142.9 495.1
08/05 04:50 22.6 68 13.66 16.4 43 46 1015 0 29.8 31.5 55.4 146.2 152.8 529.6
08/05 04:40 22.5 66 13.18 15.8 46 52 1014.9 0 28.8 30.7 53.5 141.1 146.4 507.3
08/05 04:30 22.6 68 13.66 16.4 46 54 1014.8 0 29.8 31.5 55.4 146.2 152.8 529.6
08/05 04:20 22.6 74 14.86 17.7 44 52 1014.8 0 32.4 33.6 60.6 159.9 169.6 588.4
08/05 04:10 22.8 79 16.05 19 44 48 1014.7 0 34.9 35.6 65.7 173.6 186.4 647.0
08/05 04:00 22.8 84 17.07 20 43 52 1014.8 0 37.1 37.5 70.4 186.0 201.7 700.2
08/05 03:50 22.8 89 18.08 20.9 37 46 1014.8 0 39.2 39.4 75.1 198.7 217.3 754.3
08/05 03:40 23 90 18.5 21.3 33 41 1014.8 0 40.1 40.1 76.9 203.5 223.2 775.1
08/05 03:30 22.9 91 18.6 21.4 30 37 1014.8 0 40.3 40.4 77.5 205.0 225.1 781.6
08/05 03:20 23 91 18.7 21.4 33 35 1014.8 0 40.5 40.5 77.9 206.1 226.4 786.1
08/05 03:10 23.2 92 19.13 21.8 28 35 1014.8 0 41.4 41.2 79.8 211.1 232.6 807.7
08/05 03:00 23.1 92 19.02 21.7 32 37 1014.7 0 41.2 41.1 79.4 209.9 231.1 802.6
08/05 02:50 23.1 93 19.22 21.9 30 32 1014.7 0 41.6 41.5 80.3 212.5 234.3 813.7
08/05 02:40 23.2 93 19.33 22 32 33 1014.7 0 41.8 41.6 80.8 213.7 235.8 818.7
08/05 02:30 23.1 92 19.02 21.7 32 33 1014.7 0 41.2 41.1 79.4 209.9 231.1 802.6
08/05 02:20 23.1 92 19.02 21.7 32 33 1014.8 0 41.2 41.1 79.4 209.9 231.2 802.6
08/05 02:10 23.2 93 19.33 22 30 32 1014.8 0 41.8 41.6 80.8 213.7 235.8 818.8
08/05 02:00 23.2 92 19.13 21.8 28 32 1014.8 0 41.4 41.2 79.8 211.1 232.6 807.7
08/05 01:50 23.2 92 19.13 21.8 28 30 1014.9 0 41.4 41.2 79.8 211.1 232.6 807.7
08/05 01:40 23.2 93 19.33 22 26 30 1014.9 0 41.8 41.6 80.8 213.7 235.8 818.8
08/05 01:30 23.2 92 19.13 21.8 24 28 1014.9 0 41.4 41.2 79.8 211.1 232.6 807.7
08/05 01:20 23.2 92 19.13 21.8 22 26 1015 0 41.4 41.2 79.8 211.1 232.6 807.8
08/05 01:10 23.3 92 19.23 21.9 22 24 1015 0 41.6 41.4 80.2 212.1 233.9 812.2
08/05 01:00 23.3 92 19.23 21.9 22 28 1015 0 41.6 41.4 80.2 212.1 233.9 812.2
08/05 00:50 23.4 92 19.34 22 24 28 1015.2 0 41.8 41.6 80.6 213.3 235.4 817.3
08/05 00:40 23.6 88 18.72 21.5 26 28 1015.2 0 40.5 40.3 77.4 204.7 224.9 781.1
08/05 00:30 23.5 88 18.61 21.4 24 30 1015.2 0 40.3 40.1 77.0 203.6 223.5 776.2
08/05 00:20 23.6 88 18.72 21.5 24 28 1015.3 0 40.5 40.3 77.4 204.8 225.0 781.2
08/05 00:10 23.5 87 18.4 21.2 26 28 1015.4 0 39.8 39.7 76.0 201.0 220.3 764.9
08/05 00:00 23.5 87 18.4 21.2 22 26 1015.4 0 39.8 39.7 76.0 201.0 220.3 764.9
07/05 23:50 23.6 88 18.72 21.5 20 24 1015.6 0 40.5 40.3 77.4 204.8 225.0 781.3
07/05 23:40 23.5 88 18.61 21.4 19 22 1015.5 0 40.3 40.1 77.0 203.7 223.6 776.3
07/05 23:30 23.6 87 18.5 21.3 20 24 1015.4 0 40.0 39.9 76.4 202.0 221.5 769.3
07/05 23:20 23.6 87 18.5 21.3 19 20 1015.5 0 40.0 39.9 76.4 202.0 221.6 769.3
07/05 23:10 23.6 86 18.29 21.1 20 22 1015.5 0 39.6 39.5 75.4 199.3 218.3 758.0
07/05 23:00 23.6 87 18.5 21.3 19 20 1015.6 0 40.0 39.9 76.4 202.0 221.6 769.4
07/05 22:50 23.5 87 18.4 21.2 17 19 1015.7 0 39.8 39.7 76.0 201.0 220.3 765.0
07/05 22:40 23.6 86 18.29 21.1 17 19 1015.7 0 39.6 39.5 75.4 199.4 218.3 758.1
07/05 22:30 23.6 86 18.29 21.1 17 20 1015.8 0 39.6 39.5 75.4 199.4 218.3 758.1
07/05 22:20 23.5 86 18.19 21 19 20 1015.8 0 39.4 39.3 75.0 198.4 217.1 753.7
07/05 22:10 23.5 87 18.4 21.2 19 20 1015.9 0 39.8 39.7 76.0 201.1 220.4 765.1
07/05 22:00 23.6 87 18.5 21.3 17 20 1015.9 0 40.0 39.9 76.4 202.1 221.6 769.5
07/05 21:50 23.6 87 18.5 21.3 17 19 1016 0 40.0 39.9 76.4 202.1 221.6 769.6
07/05 21:40 23.6 87 18.5 21.3 17 20 1016 0 40.0 39.9 76.4 202.1 221.6 769.6
07/05 21:30 23.7 86 18.39 21.2 19 22 1015.9 0 39.8 39.6 75.8 200.4 219.6 762.6
07/05 21:20 23.7 86 18.39 21.2 20 22 1015.9 0 39.8 39.6 75.8 200.4 219.6 762.6
07/05 21:10 23.7 88 18.82 21.6 19 20 1015.9 0 40.7 40.4 77.8 205.9 226.3 785.9
07/05 21:00 23.7 86 18.39 21.2 20 22 1016 0 39.8 39.6 75.8 200.4 219.6 762.6
07/05 20:50 23.7 86 18.39 21.2 20 22 1016.1 0 39.8 39.6 75.8 200.4 219.6 762.7
07/05 20:40 23.8 86 18.5 21.3 20 20 1016.1 0 40.0 39.8 76.2 201.6 221.1 767.6
07/05 20:30 23.7 87 18.61 21.4 19 24 1016.2 0 40.2 40.0 76.8 203.2 223.1 774.6
07/05 20:20 23.8 84 18.07 20.9 20 24 1016.1 0 39.1 39.0 74.2 196.1 214.4 744.5
07/05 20:10 23.9 84 18.17 21 20 22 1016.1 0 39.3 39.1 74.6 197.1 215.7 748.8
07/05 20:00 23.8 84 18.07 20.9 20 24 1016 0 39.1 39.0 74.2 196.1 214.4 744.4

Last Refresh: 08-May-2026 12:08:28

Bureau of Meteorology